createdAt,value
2018-06-24T13:12:52.938Z,102059.09
2018-06-24T13:15:21.413Z,102057.73
2018-06-24T13:17:49.760Z,102052.53
2018-06-24T13:20:18.342Z,102044.68
2018-06-24T13:22:46.784Z,102044.36
2018-06-24T13:25:15.338Z,102043.84
2018-06-24T13:27:43.791Z,102042.72
2018-06-24T13:30:12.632Z,102043.78
2018-06-24T13:32:41.264Z,102044.22
2018-06-24T13:35:10.182Z,102043.35
2018-06-24T13:37:38.467Z,102041.70
2018-06-24T13:40:07.046Z,102033.65
2018-06-24T13:42:35.392Z,102041.38
2018-06-24T13:45:06.109Z,102044.82
2018-06-24T13:47:34.839Z,102041.58
2018-06-24T13:50:03.719Z,102035.98
2018-06-24T13:52:32.353Z,102038.36
2018-06-24T13:55:00.889Z,102047.16
2018-06-24T13:57:29.524Z,102050.75
2018-06-24T13:59:58.049Z,102046.52
2018-06-24T14:02:26.409Z,102044.07
2018-06-24T14:04:55.073Z,102039.91
2018-06-24T14:07:23.750Z,102047.56
2018-06-24T14:09:52.671Z,102044.93
2018-06-24T14:12:21.357Z,102050.52
2018-06-24T14:14:50.208Z,102047.87
2018-06-24T14:17:19.160Z,102044.50
2018-06-24T14:19:47.557Z,102045.93
2018-06-24T14:22:16.189Z,102039.89
2018-06-24T14:24:45.095Z,102044.33
2018-06-24T14:27:13.715Z,102047.34
2018-06-24T14:29:42.472Z,102046.16
2018-06-24T14:32:11.514Z,102044.44
2018-06-24T14:34:40.191Z,102046.83
2018-06-24T14:37:08.840Z,102043.03
2018-06-24T14:39:37.233Z,102047.86
2018-06-24T14:42:05.892Z,102045.51
2018-06-24T14:44:34.526Z,102040.30
2018-06-24T14:47:03.368Z,102046.13
2018-06-24T14:49:32.090Z,102041.03
2018-06-24T14:52:00.773Z,102046.34
2018-06-24T14:54:29.495Z,102046.30
2018-06-24T14:56:58.107Z,102044.23
2018-06-24T14:59:26.723Z,102045.39
2018-06-24T15:01:55.593Z,102039.09
2018-06-24T15:04:24.073Z,102042.28
2018-06-24T15:06:52.778Z,102043.59
2018-06-24T15:09:21.690Z,102040.81
2018-06-24T15:11:50.389Z,102034.67
2018-06-24T15:14:18.754Z,102038.98
2018-06-24T15:16:47.631Z,102039.07
2018-06-24T15:19:16.188Z,102047.22
2018-06-24T15:21:44.668Z,102042.85
2018-06-24T15:24:13.220Z,102036.06
2018-06-24T15:26:41.877Z,102037.41
2018-06-24T15:29:10.384Z,102040.00
2018-06-24T15:31:38.705Z,102042.80
2018-06-24T15:34:07.657Z,102045.81
2018-06-24T15:36:36.378Z,102047.55
2018-06-24T15:39:09.194Z,102042.70
2018-06-24T15:41:38.097Z,102046.36
2018-06-24T15:44:07.355Z,102042.84
2018-06-24T15:46:36.430Z,102039.69
2018-06-24T15:49:05.226Z,102035.24
2018-06-24T15:51:33.770Z,102043.64
2018-06-24T15:54:02.712Z,102031.09
2018-06-24T15:56:31.480Z,102031.92
2018-06-24T15:59:00.042Z,102031.71
2018-06-24T16:01:28.419Z,102019.77
2018-06-24T16:03:57.092Z,102022.41
2018-06-24T16:06:25.487Z,102025.27
2018-06-24T16:08:54.036Z,102023.38
2018-06-24T16:11:22.541Z,102019.64
2018-06-24T16:13:51.173Z,102019.72
2018-06-24T16:16:19.727Z,102019.86
2018-06-24T16:18:48.404Z,102018.20
2018-06-24T16:21:17.028Z,102015.99
2018-06-24T16:23:46.023Z,102018.64
2018-06-24T16:26:14.884Z,102016.17
2018-06-24T16:28:43.494Z,102021.84
2018-06-24T16:31:12.430Z,102018.91
2018-06-24T16:33:40.949Z,102017.83
2018-06-24T16:36:09.476Z,102009.63
2018-06-24T16:38:38.001Z,102017.45
2018-06-24T16:41:06.613Z,102017.25
2018-06-24T16:43:35.680Z,102014.78
2018-06-24T16:46:04.431Z,102012.42
2018-06-24T16:48:33.115Z,102018.89
2018-06-24T16:51:01.796Z,102012.03
2018-06-24T16:53:30.456Z,102015.77
2018-06-24T16:55:59.266Z,102013.59
2018-06-24T16:58:27.901Z,102013.45
2018-06-24T17:00:56.488Z,102011.44
2018-06-24T17:03:24.833Z,102012.15
2018-06-24T17:05:53.745Z,102010.23
2018-06-24T17:08:22.510Z,102012.55
2018-06-24T17:10:51.051Z,102018.89
2018-06-24T17:13:19.746Z,102009.69
2018-06-24T17:15:48.351Z,102017.44
2018-06-24T17:18:16.871Z,102009.77
2018-06-24T17:20:45.501Z,102013.03
2018-06-24T17:23:14.207Z,102012.46
2018-06-24T17:25:42.843Z,102012.04
2018-06-24T17:28:11.364Z,102013.44
2018-06-24T17:30:40.076Z,102015.17
2018-06-24T17:33:09.048Z,102010.08
2018-06-24T17:35:37.763Z,102005.23
2018-06-24T17:38:06.791Z,102009.28
2018-06-24T17:40:35.121Z,102017.64
2018-06-24T17:43:03.799Z,102009.09
2018-06-24T17:45:32.607Z,102010.24
2018-06-24T17:48:01.430Z,102009.39
2018-06-24T17:50:29.780Z,102011.70
2018-06-24T17:52:58.808Z,102008.31
2018-06-24T17:55:27.841Z,102008.69
2018-06-24T17:57:56.445Z,102008.61
2018-06-24T18:00:25.011Z,102008.61
2018-06-24T18:02:53.470Z,102006.00
2018-06-24T18:05:22.218Z,102000.55
2018-06-24T18:07:50.664Z,101998.87
2018-06-24T18:10:19.121Z,102005.50
2018-06-24T18:12:47.736Z,102001.87
2018-06-24T18:15:16.488Z,102006.89
2018-06-24T18:17:45.241Z,102001.98
2018-06-24T18:20:13.856Z,101999.09
2018-06-24T18:22:42.444Z,101996.98
2018-06-24T18:25:11.342Z,101986.78
2018-06-24T18:27:40.074Z,101992.94
2018-06-24T18:30:09.348Z,101982.39
2018-06-24T18:32:38.339Z,101981.11
2018-06-24T18:35:06.903Z,101987.53
2018-06-24T18:37:35.774Z,101982.44
2018-06-24T18:40:04.469Z,101983.33
2018-06-24T18:42:32.990Z,101985.63
2018-06-24T18:45:01.484Z,101980.84
2018-06-24T18:47:30.032Z,101975.02
2018-06-24T18:49:58.538Z,101991.64
2018-06-24T18:52:27.449Z,101995.27
2018-06-24T18:54:56.240Z,101999.22
2018-06-24T18:57:25.248Z,102005.41
2018-06-24T18:59:53.925Z,102004.66
2018-06-24T19:02:22.689Z,102011.96
2018-06-24T19:04:51.332Z,102003.75
2018-06-24T19:07:21.209Z,102008.91
2018-06-24T19:09:49.761Z,102001.33
2018-06-24T19:12:18.066Z,102010.25
2018-06-24T19:14:46.737Z,102010.20
2018-06-24T19:17:15.513Z,102009.81
2018-06-24T19:19:44.272Z,102009.81
2018-06-24T19:22:12.754Z,102012.59
2018-06-24T19:24:41.327Z,102014.72
2018-06-24T19:27:10.007Z,102009.55
2018-06-24T19:29:38.491Z,102008.88
2018-06-24T19:32:07.233Z,102007.69
2018-06-24T19:34:35.845Z,102015.83
2018-06-24T19:37:04.856Z,102006.87
2018-06-24T19:39:33.514Z,102010.55
2018-06-24T19:42:02.196Z,102010.39
2018-06-24T19:44:30.946Z,102015.45
2018-06-24T19:46:59.471Z,102023.37
2018-06-24T19:49:28.264Z,102029.73
2018-06-24T19:51:57.669Z,102033.67
2018-06-24T19:54:26.448Z,102033.55
2018-06-24T19:56:55.018Z,102030.75
2018-06-24T19:59:23.605Z,102032.69
2018-06-24T20:01:52.196Z,102039.71
2018-06-24T20:04:20.592Z,102044.88
2018-06-24T20:06:49.372Z,102044.20
2018-06-24T20:09:17.998Z,102053.80
2018-06-24T20:11:46.720Z,102051.59
2018-06-24T20:14:15.516Z,102056.55
2018-06-24T20:16:44.227Z,102059.59
2018-06-24T20:19:12.908Z,102057.13
2018-06-24T20:21:41.300Z,102046.38
2018-06-24T20:24:10.312Z,102052.67
2018-06-24T20:26:39.385Z,102056.83
2018-06-24T20:29:07.761Z,102059.31
2018-06-24T20:31:36.368Z,102059.51
2018-06-24T20:34:04.904Z,102057.65
2018-06-24T20:36:33.554Z,102063.52
2018-06-24T20:39:02.197Z,102065.74
2018-06-24T20:41:30.975Z,102057.66
2018-06-24T20:43:59.509Z,102057.37
2018-06-24T20:46:28.432Z,102060.41
2018-06-24T20:48:57.144Z,102063.77
2018-06-24T20:51:25.715Z,102062.48
2018-06-24T20:53:54.580Z,102068.13
2018-06-24T20:56:23.272Z,102060.35
2018-06-24T20:58:52.037Z,102056.09
2018-06-24T21:01:20.748Z,102061.31
2018-06-24T21:03:49.499Z,102060.37
2018-06-24T21:06:18.052Z,102058.78
2018-06-24T21:08:46.853Z,102061.02
2018-06-24T21:11:15.324Z,102073.33
2018-06-24T21:13:43.907Z,102071.34
2018-06-24T21:16:12.480Z,102068.67
2018-06-24T21:18:41.223Z,102068.43
2018-06-24T21:21:10.270Z,102071.39
2018-06-24T21:23:39.047Z,102078.17
2018-06-24T21:26:07.753Z,102082.52
2018-06-24T21:28:36.183Z,102079.53
2018-06-24T21:31:04.901Z,102080.22
2018-06-24T21:33:33.365Z,102087.70
2018-06-24T21:36:02.053Z,102078.59
2018-06-24T21:38:30.574Z,102074.09
2018-06-24T21:40:59.361Z,102074.97
2018-06-24T21:43:28.061Z,102071.19
2018-06-24T21:45:56.636Z,102073.91
2018-06-24T21:48:25.359Z,102073.80
2018-06-24T21:50:53.951Z,102072.01
2018-06-24T21:53:22.584Z,102074.80
2018-06-24T21:55:51.328Z,102073.45
2018-06-24T21:58:19.773Z,102076.09
2018-06-24T22:00:48.620Z,102069.23
2018-06-24T22:03:17.185Z,102070.77
2018-06-24T22:05:51.902Z,102074.14
2018-06-24T22:08:20.505Z,102074.66
2018-06-24T22:10:49.329Z,102072.98
2018-06-24T22:13:17.858Z,102077.82
2018-06-24T22:15:46.393Z,102079.89
2018-06-24T22:18:14.884Z,102075.91
2018-06-24T22:20:43.482Z,102080.06
2018-06-24T22:23:11.754Z,102081.70
2018-06-24T22:25:40.405Z,102074.00
2018-06-24T22:28:08.900Z,102075.27
2018-06-24T22:30:37.579Z,102078.77
2018-06-24T22:33:06.173Z,102071.28
2018-06-24T22:35:34.715Z,102077.37
2018-06-24T22:38:03.457Z,102073.30
2018-06-24T22:40:32.036Z,102064.13
2018-06-24T22:43:00.644Z,102070.84
2018-06-24T22:45:28.878Z,102070.49
2018-06-24T22:47:57.520Z,102072.59
2018-06-24T22:50:26.165Z,102074.20
2018-06-24T22:52:54.643Z,102077.48
2018-06-24T22:55:23.632Z,102069.61
2018-06-24T22:57:52.009Z,102072.43
2018-06-24T23:00:20.679Z,102079.14
2018-06-24T23:02:49.280Z,102081.09
2018-06-24T23:05:17.788Z,102079.06
2018-06-24T23:07:46.639Z,102069.77
2018-06-24T23:10:15.219Z,102077.25
2018-06-24T23:12:43.845Z,102074.52
2018-06-24T23:15:12.723Z,102071.30
2018-06-24T23:17:41.360Z,102068.97
2018-06-24T23:20:10.269Z,102074.30
2018-06-24T23:22:39.062Z,102065.41
2018-06-24T23:25:08.004Z,102065.97
2018-06-24T23:27:36.576Z,102069.61
2018-06-24T23:30:05.335Z,102070.20
2018-06-24T23:32:34.005Z,102073.41
2018-06-24T23:35:02.513Z,102071.12
2018-06-24T23:37:31.216Z,102064.13
2018-06-24T23:39:59.767Z,102054.41
2018-06-24T23:42:28.548Z,102047.12
2018-06-24T23:44:57.158Z,102053.59
2018-06-24T23:47:25.673Z,102050.37
2018-06-24T23:49:53.980Z,102047.33
2018-06-24T23:52:22.466Z,102052.55
2018-06-24T23:54:51.053Z,102052.90
2018-06-24T23:57:19.715Z,102054.99
2018-06-24T23:59:48.070Z,102046.87
